sensor_id;sensor_type;location;lat;lon;timestamp;P1;durP1;ratioP1;P2;durP2;ratioP2
51048;SDS011;37084;55.228;36.450;2022-10-19T00:00:12;4.32;;;1.83;;
51048;SDS011;37084;55.228;36.450;2022-10-19T00:03:14;3.45;;;1.63;;
51048;SDS011;37084;55.228;36.450;2022-10-19T00:09:27;3.13;;;1.90;;
51048;SDS011;37084;55.228;36.450;2022-10-19T00:12:29;4.07;;;2.08;;
51048;SDS011;37084;55.228;36.450;2022-10-19T00:15:31;2.97;;;1.58;;
51048;SDS011;37084;55.228;36.450;2022-10-19T00:18:32;3.10;;;1.70;;
51048;SDS011;37084;55.228;36.450;2022-10-19T00:21:34;4.20;;;1.70;;
51048;SDS011;37084;55.228;36.450;2022-10-19T00:24:37;3.38;;;1.90;;
51048;SDS011;37084;55.228;36.450;2022-10-19T00:27:38;3.65;;;2.33;;
51048;SDS011;37084;55.228;36.450;2022-10-19T00:30:39;7.20;;;2.13;;
51048;SDS011;37084;55.228;36.450;2022-10-19T00:33:41;2.85;;;1.58;;
51048;SDS011;37084;55.228;36.450;2022-10-19T00:36:43;2.50;;;1.45;;
51048;SDS011;37084;55.228;36.450;2022-10-19T00:39:44;5.18;;;1.73;;
51048;SDS011;37084;55.228;36.450;2022-10-19T00:42:45;3.45;;;2.47;;
51048;SDS011;37084;55.228;36.450;2022-10-19T00:45:47;4.97;;;1.88;;
51048;SDS011;37084;55.228;36.450;2022-10-19T00:48:49;3.78;;;2.10;;
51048;SDS011;37084;55.228;36.450;2022-10-19T00:51:52;3.55;;;1.40;;
51048;SDS011;37084;55.228;36.450;2022-10-19T00:54:56;4.00;;;2.03;;
51048;SDS011;37084;55.228;36.450;2022-10-19T00:57:58;5.85;;;2.10;;
51048;SDS011;37084;55.228;36.450;2022-10-19T01:01:01;5.43;;;1.73;;
51048;SDS011;37084;55.228;36.450;2022-10-19T01:04:03;2.75;;;1.67;;
51048;SDS011;37084;55.228;36.450;2022-10-19T01:07:05;3.35;;;2.08;;
51048;SDS011;37084;55.228;36.450;2022-10-19T01:10:07;6.38;;;2.10;;
51048;SDS011;37084;55.228;36.450;2022-10-19T01:13:13;3.40;;;1.73;;
51048;SDS011;37084;55.228;36.450;2022-10-19T01:16:49;2.28;;;1.52;;
51048;SDS011;37084;55.228;36.450;2022-10-19T01:37:24;2.85;;;1.30;;
51048;SDS011;37084;55.228;36.450;2022-10-19T01:40:31;3.30;;;1.88;;
51048;SDS011;37084;55.228;36.450;2022-10-19T01:46:59;2.55;;;1.80;;
51048;SDS011;37084;55.228;36.450;2022-10-19T01:50:23;2.58;;;1.73;;
51048;SDS011;37084;55.228;36.450;2022-10-19T01:53:39;2.50;;;1.83;;
51048;SDS011;37084;55.228;36.450;2022-10-19T01:56:42;6.00;;;2.10;;
51048;SDS011;37084;55.228;36.450;2022-10-19T01:59:45;3.50;;;1.80;;
51048;SDS011;37084;55.228;36.450;2022-10-19T02:02:48;4.68;;;1.80;;
51048;SDS011;37084;55.228;36.450;2022-10-19T02:05:51;1.98;;;1.50;;
51048;SDS011;37084;55.228;36.450;2022-10-19T02:08:53;2.63;;;1.83;;
51048;SDS011;37084;55.228;36.450;2022-10-19T02:11:55;2.42;;;1.80;;
51048;SDS011;37084;55.228;36.450;2022-10-19T02:14:58;5.25;;;1.60;;
51048;SDS011;37084;55.228;36.450;2022-10-19T02:18:02;2.45;;;1.70;;
51048;SDS011;37084;55.228;36.450;2022-10-19T02:21:03;2.53;;;1.60;;
51048;SDS011;37084;55.228;36.450;2022-10-19T02:24:05;3.97;;;1.85;;
51048;SDS011;37084;55.228;36.450;2022-10-19T02:27:06;3.55;;;1.85;;
51048;SDS011;37084;55.228;36.450;2022-10-19T02:30:09;2.80;;;1.63;;
51048;SDS011;37084;55.228;36.450;2022-10-19T02:33:11;3.05;;;1.58;;
51048;SDS011;37084;55.228;36.450;2022-10-19T02:36:13;3.55;;;1.83;;
51048;SDS011;37084;55.228;36.450;2022-10-19T02:39:14;4.35;;;2.15;;
51048;SDS011;37084;55.228;36.450;2022-10-19T02:42:23;4.40;;;2.00;;
51048;SDS011;37084;55.228;36.450;2022-10-19T02:45:33;2.92;;;2.00;;
51048;SDS011;37084;55.228;36.450;2022-10-19T02:48:37;3.05;;;1.73;;
51048;SDS011;37084;55.228;36.450;2022-10-19T02:52:25;5.57;;;1.90;;
51048;SDS011;37084;55.228;36.450;2022-10-19T02:55:08;4.00;;;2.08;;
51048;SDS011;37084;55.228;36.450;2022-10-19T02:58:10;3.00;;;2.03;;
51048;SDS011;37084;55.228;36.450;2022-10-19T03:01:11;3.70;;;2.03;;
51048;SDS011;37084;55.228;36.450;2022-10-19T03:04:14;4.65;;;2.20;;
51048;SDS011;37084;55.228;36.450;2022-10-19T03:07:16;4.15;;;2.22;;
51048;SDS011;37084;55.228;36.450;2022-10-19T03:10:19;4.30;;;2.10;;
51048;SDS011;37084;55.228;36.450;2022-10-19T03:13:20;4.68;;;2.15;;
51048;SDS011;37084;55.228;36.450;2022-10-19T03:16:21;3.10;;;2.08;;
51048;SDS011;37084;55.228;36.450;2022-10-19T03:19:22;3.47;;;2.38;;
51048;SDS011;37084;55.228;36.450;2022-10-19T03:22:24;2.85;;;2.20;;
51048;SDS011;37084;55.228;36.450;2022-10-19T03:25:25;3.45;;;2.22;;
51048;SDS011;37084;55.228;36.450;2022-10-19T03:28:27;3.83;;;2.38;;
51048;SDS011;37084;55.228;36.450;2022-10-19T03:31:28;4.45;;;2.38;;
51048;SDS011;37084;55.228;36.450;2022-10-19T03:34:29;4.40;;;2.58;;
51048;SDS011;37084;55.228;36.450;2022-10-19T03:40:55;4.10;;;2.45;;
51048;SDS011;37084;55.228;36.450;2022-10-19T03:43:56;4.75;;;2.63;;
51048;SDS011;37084;55.228;36.450;2022-10-19T03:46:57;4.63;;;2.72;;
51048;SDS011;37084;55.228;36.450;2022-10-19T03:49:59;6.50;;;3.17;;
51048;SDS011;37084;55.228;36.450;2022-10-19T03:53:00;4.80;;;2.63;;
51048;SDS011;37084;55.228;36.450;2022-10-19T03:56:05;4.53;;;2.45;;
51048;SDS011;37084;55.228;36.450;2022-10-19T03:59:09;6.10;;;3.53;;
51048;SDS011;37084;55.228;36.450;2022-10-19T04:02:12;6.60;;;3.65;;
51048;SDS011;37084;55.228;36.450;2022-10-19T04:05:13;7.40;;;3.72;;
51048;SDS011;37084;55.228;36.450;2022-10-19T04:08:15;3.55;;;2.33;;
51048;SDS011;37084;55.228;36.450;2022-10-19T04:11:17;4.32;;;2.05;;
51048;SDS011;37084;55.228;36.450;2022-10-19T04:14:20;3.40;;;2.28;;
51048;SDS011;37084;55.228;36.450;2022-10-19T04:17:22;3.58;;;2.22;;
51048;SDS011;37084;55.228;36.450;2022-10-19T04:20:24;4.57;;;2.85;;
51048;SDS011;37084;55.228;36.450;2022-10-19T04:23:25;4.53;;;2.58;;
51048;SDS011;37084;55.228;36.450;2022-10-19T04:26:28;6.90;;;3.03;;
51048;SDS011;37084;55.228;36.450;2022-10-19T04:29:29;6.80;;;3.30;;
51048;SDS011;37084;55.228;36.450;2022-10-19T04:32:30;7.53;;;3.53;;
51048;SDS011;37084;55.228;36.450;2022-10-19T04:35:31;6.93;;;3.50;;
51048;SDS011;37084;55.228;36.450;2022-10-19T04:38:33;9.98;;;4.03;;
51048;SDS011;37084;55.228;36.450;2022-10-19T04:41:34;9.48;;;4.78;;
51048;SDS011;37084;55.228;36.450;2022-10-19T04:44:36;9.15;;;4.63;;
51048;SDS011;37084;55.228;36.450;2022-10-19T04:47:38;7.80;;;4.05;;
51048;SDS011;37084;55.228;36.450;2022-10-19T04:50:39;7.65;;;4.32;;
51048;SDS011;37084;55.228;36.450;2022-10-19T04:53:41;9.00;;;3.38;;
51048;SDS011;37084;55.228;36.450;2022-10-19T04:56:42;5.93;;;3.72;;
51048;SDS011;37084;55.228;36.450;2022-10-19T04:59:43;6.47;;;3.22;;
51048;SDS011;37084;55.228;36.450;2022-10-19T05:02:44;6.43;;;2.90;;
51048;SDS011;37084;55.228;36.450;2022-10-19T05:05:46;6.03;;;3.15;;
51048;SDS011;37084;55.228;36.450;2022-10-19T05:08:47;8.10;;;3.72;;
51048;SDS011;37084;55.228;36.450;2022-10-19T05:11:49;4.75;;;2.88;;
51048;SDS011;37084;55.228;36.450;2022-10-19T05:14:51;4.43;;;2.72;;
51048;SDS011;37084;55.228;36.450;2022-10-19T05:17:52;3.70;;;2.10;;
51048;SDS011;37084;55.228;36.450;2022-10-19T05:21:04;3.05;;;1.88;;
51048;SDS011;37084;55.228;36.450;2022-10-19T05:24:11;5.57;;;1.92;;
51048;SDS011;37084;55.228;36.450;2022-10-19T05:27:13;4.47;;;2.10;;
51048;SDS011;37084;55.228;36.450;2022-10-19T05:30:14;3.08;;;1.95;;
51048;SDS011;37084;55.228;36.450;2022-10-19T05:33:15;5.28;;;3.08;;
51048;SDS011;37084;55.228;36.450;2022-10-19T05:39:23;4.32;;;2.60;;
51048;SDS011;37084;55.228;36.450;2022-10-19T05:42:24;5.80;;;2.50;;
51048;SDS011;37084;55.228;36.450;2022-10-19T05:45:25;6.20;;;3.03;;
51048;SDS011;37084;55.228;36.450;2022-10-19T05:48:45;5.50;;;2.80;;
51048;SDS011;37084;55.228;36.450;2022-10-19T05:51:46;4.05;;;2.55;;
51048;SDS011;37084;55.228;36.450;2022-10-19T05:54:49;6.25;;;2.95;;
51048;SDS011;37084;55.228;36.450;2022-10-19T05:57:50;5.32;;;3.17;;
51048;SDS011;37084;55.228;36.450;2022-10-19T06:00:52;8.50;;;3.60;;
51048;SDS011;37084;55.228;36.450;2022-10-19T06:03:55;6.40;;;3.33;;
51048;SDS011;37084;55.228;36.450;2022-10-19T06:06:57;8.13;;;3.13;;
51048;SDS011;37084;55.228;36.450;2022-10-19T06:09:59;4.40;;;2.85;;
51048;SDS011;37084;55.228;36.450;2022-10-19T06:13:00;8.27;;;3.40;;
51048;SDS011;37084;55.228;36.450;2022-10-19T06:16:01;6.93;;;3.40;;
51048;SDS011;37084;55.228;36.450;2022-10-19T06:19:04;6.22;;;3.13;;
51048;SDS011;37084;55.228;36.450;2022-10-19T06:22:05;7.43;;;3.88;;
51048;SDS011;37084;55.228;36.450;2022-10-19T06:25:06;4.95;;;3.03;;
51048;SDS011;37084;55.228;36.450;2022-10-19T06:28:08;7.53;;;3.83;;
51048;SDS011;37084;55.228;36.450;2022-10-19T06:31:10;8.23;;;4.88;;
51048;SDS011;37084;55.228;36.450;2022-10-19T06:34:12;7.28;;;4.10;;
51048;SDS011;37084;55.228;36.450;2022-10-19T06:37:13;8.20;;;4.80;;
51048;SDS011;37084;55.228;36.450;2022-10-19T06:40:14;6.97;;;4.03;;
51048;SDS011;37084;55.228;36.450;2022-10-19T06:46:36;7.88;;;4.55;;
51048;SDS011;37084;55.228;36.450;2022-10-19T06:49:38;7.38;;;3.75;;
51048;SDS011;37084;55.228;36.450;2022-10-19T06:52:39;6.30;;;3.58;;
51048;SDS011;37084;55.228;36.450;2022-10-19T06:55:40;7.07;;;4.45;;
51048;SDS011;37084;55.228;36.450;2022-10-19T06:58:42;7.03;;;3.95;;
51048;SDS011;37084;55.228;36.450;2022-10-19T07:01:43;6.43;;;4.07;;
51048;SDS011;37084;55.228;36.450;2022-10-19T07:04:44;7.65;;;3.88;;
51048;SDS011;37084;55.228;36.450;2022-10-19T07:07:45;5.55;;;3.40;;
51048;SDS011;37084;55.228;36.450;2022-10-19T07:10:54;6.30;;;3.83;;
51048;SDS011;37084;55.228;36.450;2022-10-19T07:13:56;5.88;;;3.42;;
51048;SDS011;37084;55.228;36.450;2022-10-19T07:16:58;6.45;;;3.55;;
51048;SDS011;37084;55.228;36.450;2022-10-19T07:20:00;5.65;;;3.67;;
51048;SDS011;37084;55.228;36.450;2022-10-19T07:23:03;6.78;;;3.33;;
51048;SDS011;37084;55.228;36.450;2022-10-19T07:26:17;6.05;;;3.15;;
51048;SDS011;37084;55.228;36.450;2022-10-19T07:32:42;5.38;;;2.83;;
51048;SDS011;37084;55.228;36.450;2022-10-19T07:35:44;4.18;;;2.78;;
51048;SDS011;37084;55.228;36.450;2022-10-19T07:38:45;4.88;;;3.08;;
51048;SDS011;37084;55.228;36.450;2022-10-19T07:42:05;6.68;;;3.20;;
51048;SDS011;37084;55.228;36.450;2022-10-19T07:45:07;5.93;;;2.92;;
51048;SDS011;37084;55.228;36.450;2022-10-19T07:48:08;4.95;;;2.80;;
51048;SDS011;37084;55.228;36.450;2022-10-19T07:51:10;4.38;;;3.03;;
51048;SDS011;37084;55.228;36.450;2022-10-19T07:54:12;5.75;;;2.90;;
51048;SDS011;37084;55.228;36.450;2022-10-19T07:57:14;6.65;;;3.40;;
51048;SDS011;37084;55.228;36.450;2022-10-19T08:00:16;4.60;;;3.20;;
51048;SDS011;37084;55.228;36.450;2022-10-19T08:03:18;5.60;;;3.03;;
51048;SDS011;37084;55.228;36.450;2022-10-19T08:06:19;5.13;;;2.92;;
51048;SDS011;37084;55.228;36.450;2022-10-19T08:09:22;4.60;;;2.95;;
51048;SDS011;37084;55.228;36.450;2022-10-19T08:12:23;5.38;;;3.03;;
51048;SDS011;37084;55.228;36.450;2022-10-19T08:15:24;7.60;;;3.65;;
51048;SDS011;37084;55.228;36.450;2022-10-19T08:18:27;5.68;;;3.33;;
51048;SDS011;37084;55.228;36.450;2022-10-19T08:21:28;7.43;;;3.47;;
51048;SDS011;37084;55.228;36.450;2022-10-19T08:24:31;7.00;;;3.55;;
51048;SDS011;37084;55.228;36.450;2022-10-19T08:27:32;6.25;;;3.38;;
51048;SDS011;37084;55.228;36.450;2022-10-19T08:30:34;8.00;;;4.22;;
51048;SDS011;37084;55.228;36.450;2022-10-19T08:33:35;7.22;;;3.67;;
51048;SDS011;37084;55.228;36.450;2022-10-19T08:36:36;6.72;;;3.80;;
51048;SDS011;37084;55.228;36.450;2022-10-19T08:39:40;7.32;;;3.30;;
51048;SDS011;37084;55.228;36.450;2022-10-19T08:49:51;4.43;;;2.72;;
51048;SDS011;37084;55.228;36.450;2022-10-19T08:53:15;5.35;;;3.10;;
51048;SDS011;37084;55.228;36.450;2022-10-19T09:03:26;4.97;;;2.75;;
51048;SDS011;37084;55.228;36.450;2022-10-19T09:06:57;4.85;;;2.55;;
51048;SDS011;37084;55.228;36.450;2022-10-19T09:10:13;4.57;;;2.50;;
51048;SDS011;37084;55.228;36.450;2022-10-19T09:13:32;3.60;;;2.42;;
51048;SDS011;37084;55.228;36.450;2022-10-19T09:16:36;3.85;;;2.42;;
51048;SDS011;37084;55.228;36.450;2022-10-19T09:19:38;3.60;;;2.22;;
51048;SDS011;37084;55.228;36.450;2022-10-19T09:22:40;3.30;;;2.13;;
51048;SDS011;37084;55.228;36.450;2022-10-19T09:25:43;3.58;;;2.33;;
51048;SDS011;37084;55.228;36.450;2022-10-19T09:32:00;3.30;;;2.50;;
51048;SDS011;37084;55.228;36.450;2022-10-19T09:35:02;6.10;;;4.22;;
51048;SDS011;37084;55.228;36.450;2022-10-19T09:38:17;7.68;;;5.22;;
51048;SDS011;37084;55.228;36.450;2022-10-19T09:41:21;6.32;;;4.65;;
51048;SDS011;37084;55.228;36.450;2022-10-19T09:44:23;6.90;;;4.47;;
51048;SDS011;37084;55.228;36.450;2022-10-19T09:47:32;6.72;;;5.25;;
51048;SDS011;37084;55.228;36.450;2022-10-19T09:50:35;5.35;;;3.55;;
51048;SDS011;37084;55.228;36.450;2022-10-19T09:53:36;3.47;;;2.80;;
51048;SDS011;37084;55.228;36.450;2022-10-19T10:03:24;3.17;;;2.28;;
51048;SDS011;37084;55.228;36.450;2022-10-19T10:06:30;2.10;;;1.70;;
51048;SDS011;37084;55.228;36.450;2022-10-19T10:09:31;2.53;;;1.80;;
51048;SDS011;37084;55.228;36.450;2022-10-19T10:12:38;2.75;;;1.73;;
51048;SDS011;37084;55.228;36.450;2022-10-19T10:15:41;2.80;;;1.80;;
51048;SDS011;37084;55.228;36.450;2022-10-19T10:21:54;2.47;;;1.63;;
51048;SDS011;37084;55.228;36.450;2022-10-19T10:24:57;1.83;;;1.20;;
51048;SDS011;37084;55.228;36.450;2022-10-19T10:27:59;2.20;;;1.50;;
51048;SDS011;37084;55.228;36.450;2022-10-19T10:31:03;2.03;;;1.35;;
51048;SDS011;37084;55.228;36.450;2022-10-19T10:34:10;2.10;;;1.63;;
51048;SDS011;37084;55.228;36.450;2022-10-19T10:37:28;3.13;;;1.83;;
51048;SDS011;37084;55.228;36.450;2022-10-19T10:43:37;2.97;;;2.65;;
51048;SDS011;37084;55.228;36.450;2022-10-19T10:46:55;2.78;;;2.22;;
51048;SDS011;37084;55.228;36.450;2022-10-19T10:49:58;3.38;;;2.67;;
51048;SDS011;37084;55.228;36.450;2022-10-19T10:53:04;2.20;;;1.77;;
51048;SDS011;37084;55.228;36.450;2022-10-19T10:56:24;2.50;;;2.13;;
51048;SDS011;37084;55.228;36.450;2022-10-19T10:59:32;1.65;;;1.38;;
51048;SDS011;37084;55.228;36.450;2022-10-19T11:02:39;2.55;;;1.63;;
51048;SDS011;37084;55.228;36.450;2022-10-19T11:05:58;1.90;;;1.60;;
51048;SDS011;37084;55.228;36.450;2022-10-19T11:09:43;2.53;;;2.08;;
51048;SDS011;37084;55.228;36.450;2022-10-19T11:12:38;1.90;;;1.60;;
51048;SDS011;37084;55.228;36.450;2022-10-19T11:15:47;1.67;;;1.45;;
51048;SDS011;37084;55.228;36.450;2022-10-19T11:22:58;2.05;;;1.27;;
51048;SDS011;37084;55.228;36.450;2022-10-19T11:29:36;2.13;;;1.67;;
51048;SDS011;37084;55.228;36.450;2022-10-19T11:36:04;2.67;;;2.30;;
51048;SDS011;37084;55.228;36.450;2022-10-19T11:39:18;4.70;;;2.97;;
51048;SDS011;37084;55.228;36.450;2022-10-19T11:46:17;3.83;;;2.35;;
51048;SDS011;37084;55.228;36.450;2022-10-19T11:59:30;4.28;;;3.08;;
51048;SDS011;37084;55.228;36.450;2022-10-19T12:12:48;5.03;;;2.70;;
51048;SDS011;37084;55.228;36.450;2022-10-19T12:15:52;5.93;;;3.40;;
51048;SDS011;37084;55.228;36.450;2022-10-19T12:18:54;4.38;;;2.92;;
51048;SDS011;37084;55.228;36.450;2022-10-19T12:21:59;4.05;;;3.20;;
51048;SDS011;37084;55.228;36.450;2022-10-19T12:25:01;4.40;;;3.30;;
51048;SDS011;37084;55.228;36.450;2022-10-19T12:28:03;5.35;;;3.20;;
51048;SDS011;37084;55.228;36.450;2022-10-19T12:31:05;4.78;;;2.92;;
51048;SDS011;37084;55.228;36.450;2022-10-19T12:34:18;4.57;;;2.78;;
51048;SDS011;37084;55.228;36.450;2022-10-19T12:37:30;5.07;;;2.80;;
51048;SDS011;37084;55.228;36.450;2022-10-19T12:40:59;3.85;;;2.72;;
51048;SDS011;37084;55.228;36.450;2022-10-19T12:44:16;3.55;;;2.67;;
51048;SDS011;37084;55.228;36.450;2022-10-19T12:47:29;4.88;;;2.90;;
51048;SDS011;37084;55.228;36.450;2022-10-19T12:53:47;8.07;;;4.50;;
51048;SDS011;37084;55.228;36.450;2022-10-19T12:56:50;6.78;;;4.95;;
51048;SDS011;37084;55.228;36.450;2022-10-19T13:06:01;7.85;;;5.53;;
51048;SDS011;37084;55.228;36.450;2022-10-19T13:16:05;8.48;;;5.72;;
51048;SDS011;37084;55.228;36.450;2022-10-19T13:22:23;9.68;;;5.88;;
51048;SDS011;37084;55.228;36.450;2022-10-19T13:25:28;8.50;;;5.47;;
51048;SDS011;37084;55.228;36.450;2022-10-19T13:31:31;9.75;;;6.60;;
51048;SDS011;37084;55.228;36.450;2022-10-19T13:34:32;12.38;;;8.18;;
51048;SDS011;37084;55.228;36.450;2022-10-19T13:37:34;14.07;;;9.65;;
51048;SDS011;37084;55.228;36.450;2022-10-19T13:40:36;13.77;;;9.63;;
51048;SDS011;37084;55.228;36.450;2022-10-19T13:53:34;10.30;;;6.45;;
51048;SDS011;37084;55.228;36.450;2022-10-19T14:04:08;10.73;;;5.85;;
51048;SDS011;37084;55.228;36.450;2022-10-19T14:07:22;12.30;;;8.95;;
51048;SDS011;37084;55.228;36.450;2022-10-19T14:10:26;12.90;;;8.50;;
51048;SDS011;37084;55.228;36.450;2022-10-19T14:13:29;10.88;;;7.03;;
51048;SDS011;37084;55.228;36.450;2022-10-19T14:16:30;8.05;;;5.25;;
51048;SDS011;37084;55.228;36.450;2022-10-19T14:22:54;7.95;;;4.40;;
51048;SDS011;37084;55.228;36.450;2022-10-19T14:25:57;9.55;;;6.97;;
51048;SDS011;37084;55.228;36.450;2022-10-19T14:29:00;10.68;;;6.95;;
51048;SDS011;37084;55.228;36.450;2022-10-19T14:32:02;7.97;;;4.38;;
51048;SDS011;37084;55.228;36.450;2022-10-19T14:35:04;6.72;;;3.95;;
51048;SDS011;37084;55.228;36.450;2022-10-19T14:38:19;6.43;;;3.88;;
51048;SDS011;37084;55.228;36.450;2022-10-19T14:41:28;9.10;;;4.65;;
51048;SDS011;37084;55.228;36.450;2022-10-19T14:44:41;6.35;;;4.25;;
51048;SDS011;37084;55.228;36.450;2022-10-19T14:47:56;6.75;;;4.25;;
51048;SDS011;37084;55.228;36.450;2022-10-19T14:51:00;7.72;;;4.18;;
51048;SDS011;37084;55.228;36.450;2022-10-19T14:54:05;8.20;;;4.85;;
51048;SDS011;37084;55.228;36.450;2022-10-19T14:57:24;10.02;;;5.38;;
51048;SDS011;37084;55.228;36.450;2022-10-19T15:00:31;9.52;;;4.90;;
51048;SDS011;37084;55.228;36.450;2022-10-19T15:03:51;15.60;;;7.55;;
51048;SDS011;37084;55.228;36.450;2022-10-19T15:06:52;13.45;;;6.40;;
51048;SDS011;37084;55.228;36.450;2022-10-19T15:09:55;10.90;;;6.72;;
51048;SDS011;37084;55.228;36.450;2022-10-19T15:13:00;7.38;;;4.70;;
51048;SDS011;37084;55.228;36.450;2022-10-19T15:16:03;8.80;;;4.40;;
51048;SDS011;37084;55.228;36.450;2022-10-19T15:19:05;8.07;;;5.32;;
51048;SDS011;37084;55.228;36.450;2022-10-19T15:22:12;8.40;;;5.15;;
51048;SDS011;37084;55.228;36.450;2022-10-19T15:25:29;9.63;;;5.00;;
51048;SDS011;37084;55.228;36.450;2022-10-19T15:28:34;8.73;;;5.20;;
51048;SDS011;37084;55.228;36.450;2022-10-19T15:31:37;11.95;;;5.97;;
51048;SDS011;37084;55.228;36.450;2022-10-19T15:34:38;7.80;;;5.15;;
51048;SDS011;37084;55.228;36.450;2022-10-19T15:37:42;11.43;;;5.53;;
51048;SDS011;37084;55.228;36.450;2022-10-19T15:40:44;9.95;;;5.72;;
51048;SDS011;37084;55.228;36.450;2022-10-19T15:43:50;8.90;;;4.93;;
51048;SDS011;37084;55.228;36.450;2022-10-19T15:50:29;9.45;;;4.93;;
51048;SDS011;37084;55.228;36.450;2022-10-19T15:53:31;8.18;;;5.25;;
51048;SDS011;37084;55.228;36.450;2022-10-19T15:56:34;8.65;;;5.38;;
51048;SDS011;37084;55.228;36.450;2022-10-19T15:59:37;8.30;;;5.03;;
51048;SDS011;37084;55.228;36.450;2022-10-19T16:02:38;10.30;;;5.55;;
51048;SDS011;37084;55.228;36.450;2022-10-19T16:05:40;8.38;;;5.18;;
51048;SDS011;37084;55.228;36.450;2022-10-19T16:08:41;12.88;;;6.85;;
51048;SDS011;37084;55.228;36.450;2022-10-19T16:12:01;10.85;;;5.38;;
51048;SDS011;37084;55.228;36.450;2022-10-19T16:15:02;8.85;;;5.20;;
51048;SDS011;37084;55.228;36.450;2022-10-19T16:18:04;8.80;;;5.18;;
51048;SDS011;37084;55.228;36.450;2022-10-19T16:21:06;10.15;;;5.53;;
51048;SDS011;37084;55.228;36.450;2022-10-19T16:24:07;10.07;;;5.40;;
51048;SDS011;37084;55.228;36.450;2022-10-19T16:27:08;9.30;;;4.93;;
51048;SDS011;37084;55.228;36.450;2022-10-19T16:30:14;6.60;;;4.18;;
51048;SDS011;37084;55.228;36.450;2022-10-19T16:33:15;8.98;;;4.45;;
51048;SDS011;37084;55.228;36.450;2022-10-19T16:36:17;11.15;;;4.43;;
51048;SDS011;37084;55.228;36.450;2022-10-19T16:39:21;6.97;;;3.97;;
51048;SDS011;37084;55.228;36.450;2022-10-19T16:42:25;8.13;;;4.75;;
51048;SDS011;37084;55.228;36.450;2022-10-19T16:45:26;6.53;;;4.13;;
51048;SDS011;37084;55.228;36.450;2022-10-19T16:48:28;9.40;;;4.20;;
51048;SDS011;37084;55.228;36.450;2022-10-19T16:51:36;5.80;;;4.03;;
51048;SDS011;37084;55.228;36.450;2022-10-19T16:54:38;7.47;;;4.03;;
51048;SDS011;37084;55.228;36.450;2022-10-19T16:57:39;8.57;;;4.43;;
51048;SDS011;37084;55.228;36.450;2022-10-19T17:00:41;8.07;;;4.13;;
51048;SDS011;37084;55.228;36.450;2022-10-19T17:03:43;6.05;;;3.95;;
51048;SDS011;37084;55.228;36.450;2022-10-19T17:06:44;6.18;;;3.40;;
51048;SDS011;37084;55.228;36.450;2022-10-19T17:09:45;7.50;;;4.22;;
51048;SDS011;37084;55.228;36.450;2022-10-19T17:12:47;10.05;;;4.47;;
51048;SDS011;37084;55.228;36.450;2022-10-19T17:15:48;6.68;;;3.97;;
51048;SDS011;37084;55.228;36.450;2022-10-19T17:18:49;5.05;;;3.30;;
51048;SDS011;37084;55.228;36.450;2022-10-19T17:21:56;5.57;;;3.35;;
51048;SDS011;37084;55.228;36.450;2022-10-19T17:24:58;5.20;;;3.08;;
51048;SDS011;37084;55.228;36.450;2022-10-19T17:27:59;6.25;;;3.17;;
51048;SDS011;37084;55.228;36.450;2022-10-19T17:31:04;6.53;;;3.50;;
51048;SDS011;37084;55.228;36.450;2022-10-19T17:34:08;6.15;;;3.53;;
51048;SDS011;37084;55.228;36.450;2022-10-19T17:37:09;6.57;;;3.63;;
51048;SDS011;37084;55.228;36.450;2022-10-19T17:40:10;8.35;;;3.83;;
51048;SDS011;37084;55.228;36.450;2022-10-19T17:43:12;7.30;;;4.10;;
51048;SDS011;37084;55.228;36.450;2022-10-19T17:46:14;6.75;;;4.15;;
51048;SDS011;37084;55.228;36.450;2022-10-19T17:49:21;5.70;;;3.80;;
51048;SDS011;37084;55.228;36.450;2022-10-19T17:52:22;9.65;;;4.22;;
51048;SDS011;37084;55.228;36.450;2022-10-19T17:55:23;8.77;;;4.20;;
51048;SDS011;37084;55.228;36.450;2022-10-19T17:58:26;8.05;;;4.22;;
51048;SDS011;37084;55.228;36.450;2022-10-19T18:01:29;9.07;;;4.82;;
51048;SDS011;37084;55.228;36.450;2022-10-19T18:04:30;6.97;;;3.53;;
51048;SDS011;37084;55.228;36.450;2022-10-19T18:07:32;7.32;;;3.95;;
51048;SDS011;37084;55.228;36.450;2022-10-19T18:10:36;9.10;;;4.18;;
51048;SDS011;37084;55.228;36.450;2022-10-19T18:13:37;8.45;;;4.20;;
51048;SDS011;37084;55.228;36.450;2022-10-19T18:16:41;8.43;;;5.00;;
51048;SDS011;37084;55.228;36.450;2022-10-19T18:19:46;8.60;;;4.57;;
51048;SDS011;37084;55.228;36.450;2022-10-19T18:22:48;7.13;;;3.95;;
51048;SDS011;37084;55.228;36.450;2022-10-19T18:25:49;7.82;;;4.75;;
51048;SDS011;37084;55.228;36.450;2022-10-19T18:32:12;7.25;;;3.83;;
51048;SDS011;37084;55.228;36.450;2022-10-19T18:35:13;7.40;;;3.88;;
51048;SDS011;37084;55.228;36.450;2022-10-19T18:38:14;7.47;;;3.70;;
51048;SDS011;37084;55.228;36.450;2022-10-19T18:41:15;6.57;;;3.92;;
51048;SDS011;37084;55.228;36.450;2022-10-19T18:44:16;7.20;;;4.20;;
51048;SDS011;37084;55.228;36.450;2022-10-19T18:47:18;8.02;;;3.95;;
51048;SDS011;37084;55.228;36.450;2022-10-19T18:50:19;7.70;;;4.18;;
51048;SDS011;37084;55.228;36.450;2022-10-19T18:53:20;9.00;;;4.25;;
51048;SDS011;37084;55.228;36.450;2022-10-19T18:56:22;8.20;;;3.97;;
51048;SDS011;37084;55.228;36.450;2022-10-19T18:59:23;9.07;;;4.60;;
51048;SDS011;37084;55.228;36.450;2022-10-19T19:02:24;8.63;;;4.13;;
51048;SDS011;37084;55.228;36.450;2022-10-19T19:05:26;9.15;;;4.22;;
51048;SDS011;37084;55.228;36.450;2022-10-19T19:08:28;8.80;;;4.78;;
51048;SDS011;37084;55.228;36.450;2022-10-19T19:11:30;9.18;;;4.00;;
51048;SDS011;37084;55.228;36.450;2022-10-19T19:14:32;7.35;;;4.13;;
51048;SDS011;37084;55.228;36.450;2022-10-19T19:17:34;7.57;;;4.07;;
51048;SDS011;37084;55.228;36.450;2022-10-19T19:20:38;6.60;;;3.58;;
51048;SDS011;37084;55.228;36.450;2022-10-19T19:23:40;7.28;;;3.72;;
51048;SDS011;37084;55.228;36.450;2022-10-19T19:26:43;7.05;;;3.88;;
51048;SDS011;37084;55.228;36.450;2022-10-19T19:29:47;6.68;;;3.83;;
51048;SDS011;37084;55.228;36.450;2022-10-19T19:32:49;7.35;;;3.92;;
51048;SDS011;37084;55.228;36.450;2022-10-19T19:35:50;8.93;;;3.83;;
51048;SDS011;37084;55.228;36.450;2022-10-19T19:38:52;9.52;;;3.70;;
51048;SDS011;37084;55.228;36.450;2022-10-19T19:41:54;7.60;;;3.90;;
51048;SDS011;37084;55.228;36.450;2022-10-19T19:44:55;6.78;;;3.70;;
51048;SDS011;37084;55.228;36.450;2022-10-19T19:47:57;7.03;;;3.53;;
51048;SDS011;37084;55.228;36.450;2022-10-19T19:50:58;7.90;;;4.00;;
51048;SDS011;37084;55.228;36.450;2022-10-19T19:53:59;6.88;;;3.40;;
51048;SDS011;37084;55.228;36.450;2022-10-19T19:57:00;7.28;;;3.75;;
51048;SDS011;37084;55.228;36.450;2022-10-19T20:00:02;5.97;;;3.40;;
51048;SDS011;37084;55.228;36.450;2022-10-19T20:03:12;7.15;;;4.25;;
51048;SDS011;37084;55.228;36.450;2022-10-19T20:06:14;7.45;;;4.22;;
51048;SDS011;37084;55.228;36.450;2022-10-19T20:09:16;9.18;;;4.65;;
51048;SDS011;37084;55.228;36.450;2022-10-19T20:12:21;11.63;;;5.68;;
51048;SDS011;37084;55.228;36.450;2022-10-19T20:15:22;8.85;;;4.78;;
51048;SDS011;37084;55.228;36.450;2022-10-19T20:18:23;9.82;;;6.30;;
51048;SDS011;37084;55.228;36.450;2022-10-19T20:21:24;10.82;;;6.40;;
51048;SDS011;37084;55.228;36.450;2022-10-19T20:24:27;11.30;;;6.05;;
51048;SDS011;37084;55.228;36.450;2022-10-19T20:27:28;12.10;;;6.80;;
51048;SDS011;37084;55.228;36.450;2022-10-19T20:30:30;9.90;;;5.80;;
51048;SDS011;37084;55.228;36.450;2022-10-19T20:33:32;10.77;;;6.13;;
51048;SDS011;37084;55.228;36.450;2022-10-19T20:36:34;10.43;;;5.68;;
51048;SDS011;37084;55.228;36.450;2022-10-19T20:39:35;12.18;;;5.90;;
51048;SDS011;37084;55.228;36.450;2022-10-19T20:42:37;11.00;;;5.90;;